createdAt,value
2017-12-31T00:01:41.102Z,0.67
2017-12-31T00:04:08.761Z,0.50
2017-12-31T00:06:36.360Z,0.50
2017-12-31T00:09:03.927Z,0.40
2017-12-31T00:11:31.542Z,1.03
2017-12-31T00:13:59.138Z,0.30
2017-12-31T00:16:26.726Z,0.40
2017-12-31T00:18:55.139Z,0.60
2017-12-31T00:21:22.702Z,0.50
2017-12-31T00:23:50.262Z,0.30
2017-12-31T00:26:17.846Z,0.37
2017-12-31T00:28:45.465Z,0.60
2017-12-31T00:31:13.138Z,0.50
2017-12-31T00:33:40.695Z,0.60
2017-12-31T00:36:08.282Z,0.40
2017-12-31T00:38:35.845Z,0.40
2017-12-31T00:41:03.403Z,0.70
2017-12-31T00:43:30.989Z,0.40
2017-12-31T00:45:58.546Z,0.67
2017-12-31T00:48:26.959Z,0.87
2017-12-31T00:50:54.624Z,0.47
2017-12-31T00:53:22.225Z,0.40
2017-12-31T00:55:49.778Z,0.50
2017-12-31T00:58:17.618Z,0.50
2017-12-31T01:00:45.202Z,0.80
2017-12-31T01:03:12.758Z,0.70
2017-12-31T01:05:40.344Z,0.40
2017-12-31T01:08:08.670Z,0.40
2017-12-31T01:10:36.262Z,0.80
2017-12-31T01:13:03.866Z,0.67
2017-12-31T01:15:31.545Z,1.00
2017-12-31T01:17:59.108Z,0.67
2017-12-31T01:20:26.775Z,0.50
2017-12-31T01:22:54.370Z,0.80
2017-12-31T01:25:21.917Z,0.77
2017-12-31T01:27:51.015Z,0.83
2017-12-31T01:30:18.593Z,1.03
2017-12-31T01:32:46.922Z,1.00
2017-12-31T01:35:14.517Z,2.10
2017-12-31T01:37:43.657Z,1.03
2017-12-31T01:40:11.254Z,0.90
2017-12-31T01:42:38.854Z,1.17
2017-12-31T01:45:07.186Z,0.90
2017-12-31T01:47:34.766Z,1.50
2017-12-31T01:50:02.338Z,1.23
2017-12-31T01:52:30.703Z,0.77
2017-12-31T01:54:59.786Z,0.97
2017-12-31T01:57:27.342Z,0.57
2017-12-31T01:59:54.955Z,1.03
2017-12-31T02:02:22.511Z,1.50
2017-12-31T02:04:50.121Z,1.20
2017-12-31T02:07:17.734Z,1.83
2017-12-31T02:09:45.290Z,1.87
2017-12-31T02:12:12.970Z,1.03
2017-12-31T02:14:40.677Z,1.97
2017-12-31T02:17:09.031Z,2.23
2017-12-31T02:19:36.590Z,1.73
2017-12-31T02:22:04.146Z,1.60
2017-12-31T02:24:31.732Z,0.87
2017-12-31T02:26:59.282Z,1.83
2017-12-31T02:29:26.934Z,1.20
2017-12-31T02:31:54.598Z,1.30
2017-12-31T02:34:22.197Z,1.60
2017-12-31T02:36:49.771Z,1.30
2017-12-31T02:39:17.563Z,1.40
2017-12-31T02:41:45.151Z,1.53
2017-12-31T02:44:13.564Z,1.03
2017-12-31T02:46:41.156Z,1.00
2017-12-31T02:49:08.706Z,1.37
2017-12-31T02:51:36.291Z,0.97
2017-12-31T02:54:03.858Z,1.40
2017-12-31T02:56:32.915Z,1.27
2017-12-31T02:59:00.494Z,2.00
2017-12-31T03:01:28.055Z,1.10
2017-12-31T03:03:55.650Z,1.37
2017-12-31T03:06:23.220Z,1.37
2017-12-31T03:08:50.802Z,1.00
2017-12-31T03:11:18.366Z,1.70
2017-12-31T03:13:45.918Z,1.53
2017-12-31T03:16:13.514Z,1.10
2017-12-31T03:18:41.849Z,1.70
2017-12-31T03:21:09.470Z,1.73
2017-12-31T03:23:37.979Z,1.77
2017-12-31T03:26:05.567Z,2.07
2017-12-31T03:28:34.091Z,1.73
2017-12-31T03:31:02.467Z,1.60
2017-12-31T03:33:30.807Z,0.80
2017-12-31T03:35:58.388Z,1.53
2017-12-31T03:38:25.986Z,2.20
2017-12-31T03:40:53.555Z,1.93
2017-12-31T03:43:21.161Z,1.73
2017-12-31T03:45:48.722Z,1.70
2017-12-31T03:48:17.069Z,0.97
2017-12-31T03:50:44.639Z,0.80
2017-12-31T03:53:12.218Z,1.47
2017-12-31T03:55:40.538Z,1.53
2017-12-31T03:58:08.149Z,0.60
2017-12-31T04:00:36.555Z,0.50
2017-12-31T04:03:04.154Z,1.80
2017-12-31T04:05:31.737Z,1.13
2017-12-31T04:07:59.381Z,0.97
2017-12-31T04:10:27.022Z,0.80
2017-12-31T04:12:54.578Z,0.70
2017-12-31T04:15:22.211Z,0.67
2017-12-31T04:17:49.794Z,1.00
2017-12-31T04:20:17.394Z,0.93
2017-12-31T04:22:45.003Z,1.20
2017-12-31T04:25:12.550Z,1.20
2017-12-31T04:27:40.138Z,1.10
2017-12-31T04:30:07.728Z,1.20
2017-12-31T04:32:35.454Z,1.00
2017-12-31T04:35:03.024Z,0.70
2017-12-31T04:37:30.573Z,0.80
2017-12-31T04:39:58.303Z,1.43
2017-12-31T04:42:25.979Z,0.40
2017-12-31T04:44:53.562Z,1.30
2017-12-31T04:47:21.110Z,1.00
2017-12-31T04:49:48.726Z,0.77
2017-12-31T04:52:17.179Z,1.27
2017-12-31T04:54:44.758Z,0.80
2017-12-31T04:57:12.457Z,0.70
2017-12-31T04:59:40.014Z,1.30
2017-12-31T05:02:07.687Z,0.73
2017-12-31T05:04:35.241Z,0.67
2017-12-31T05:07:02.766Z,0.80
2017-12-31T05:09:31.143Z,1.03
2017-12-31T05:11:59.465Z,0.70
2017-12-31T05:14:27.054Z,0.30
2017-12-31T05:16:54.630Z,0.70
2017-12-31T05:19:22.946Z,1.30
2017-12-31T05:21:50.539Z,0.50
2017-12-31T05:24:18.078Z,0.70
2017-12-31T05:26:45.690Z,0.50
2017-12-31T05:29:14.098Z,0.90
2017-12-31T05:31:41.646Z,0.93
2017-12-31T05:34:09.235Z,1.33
2017-12-31T05:36:36.791Z,0.70
2017-12-31T05:39:04.386Z,0.67
2017-12-31T05:41:32.722Z,0.60
2017-12-31T05:44:00.419Z,0.80
2017-12-31T05:46:28.005Z,0.80
2017-12-31T05:48:56.329Z,0.77
2017-12-31T05:51:23.962Z,0.77
2017-12-31T05:53:51.726Z,0.60
2017-12-31T05:56:19.383Z,0.73
2017-12-31T05:58:46.997Z,0.83
2017-12-31T06:01:15.386Z,1.00
2017-12-31T06:03:43.802Z,0.60
2017-12-31T06:06:11.407Z,0.60
2017-12-31T06:08:39.015Z,0.67
2017-12-31T06:11:06.574Z,0.90
2017-12-31T06:13:34.163Z,1.00
2017-12-31T06:16:01.835Z,0.90
2017-12-31T06:18:30.165Z,0.70
2017-12-31T06:20:57.718Z,0.67
2017-12-31T06:23:25.298Z,0.97
2017-12-31T06:25:53.150Z,0.83
2017-12-31T06:28:20.729Z,0.90
2017-12-31T06:30:48.369Z,0.60
2017-12-31T06:33:15.957Z,1.10
2017-12-31T06:35:43.507Z,1.60
2017-12-31T06:38:11.118Z,0.93
2017-12-31T06:40:39.525Z,1.30
2017-12-31T06:43:07.086Z,1.13
2017-12-31T06:45:34.678Z,0.70
2017-12-31T06:48:02.242Z,0.90
2017-12-31T06:50:29.933Z,0.87
2017-12-31T06:52:57.470Z,0.83
2017-12-31T06:55:25.022Z,1.03
2017-12-31T06:57:52.578Z,1.40
2017-12-31T07:00:21.977Z,0.77
2017-12-31T07:02:49.533Z,1.10
2017-12-31T07:05:17.102Z,0.57
2017-12-31T07:07:44.700Z,1.27
2017-12-31T07:10:12.254Z,0.70
2017-12-31T07:12:39.839Z,1.00
2017-12-31T07:15:07.395Z,1.40
2017-12-31T07:17:34.986Z,0.70
2017-12-31T07:20:02.540Z,0.90
2017-12-31T07:22:30.094Z,0.80
2017-12-31T07:24:59.305Z,0.93
2017-12-31T07:27:26.885Z,0.53
2017-12-31T07:29:55.215Z,0.50
2017-12-31T07:32:22.799Z,1.47
2017-12-31T07:34:50.355Z,1.23
2017-12-31T07:37:17.937Z,1.00
2017-12-31T07:39:46.315Z,1.87
2017-12-31T07:42:14.662Z,1.47
2017-12-31T07:44:42.218Z,0.83
2017-12-31T07:47:09.829Z,1.40
2017-12-31T07:49:37.382Z,1.10
2017-12-31T07:52:05.702Z,0.90
2017-12-31T07:54:33.490Z,0.70
2017-12-31T07:57:01.010Z,0.80
2017-12-31T07:59:28.598Z,0.70
2017-12-31T08:01:56.147Z,1.00
2017-12-31T08:04:23.774Z,0.97
2017-12-31T08:06:51.354Z,0.70
2017-12-31T08:09:19.095Z,0.77
2017-12-31T08:11:46.642Z,1.27
2017-12-31T08:14:14.190Z,0.70
2017-12-31T08:16:42.589Z,1.20
2017-12-31T08:19:10.150Z,0.70
2017-12-31T08:21:37.746Z,1.20
2017-12-31T08:24:05.311Z,0.63
2017-12-31T08:26:32.915Z,0.93
2017-12-31T08:29:00.582Z,0.83
2017-12-31T08:31:28.321Z,1.00
2017-12-31T08:33:56.823Z,1.03
2017-12-31T08:36:24.375Z,1.50
2017-12-31T08:38:52.043Z,1.23
2017-12-31T08:41:19.594Z,1.27
2017-12-31T08:43:47.154Z,1.00
2017-12-31T08:46:14.734Z,0.97
2017-12-31T08:48:42.298Z,1.20
2017-12-31T08:51:10.014Z,0.70
2017-12-31T08:53:38.346Z,1.10
2017-12-31T08:56:05.934Z,1.17
2017-12-31T08:58:34.247Z,0.80
2017-12-31T09:01:01.835Z,1.00
2017-12-31T09:03:29.388Z,0.97
2017-12-31T09:05:56.986Z,1.10
2017-12-31T09:08:24.580Z,0.50
2017-12-31T09:10:52.199Z,0.47
2017-12-31T09:13:21.305Z,1.50
2017-12-31T09:15:49.677Z,0.97
2017-12-31T09:18:18.240Z,0.70
2017-12-31T09:20:45.803Z,1.73
2017-12-31T09:23:14.865Z,0.87
2017-12-31T09:25:42.612Z,0.83
2017-12-31T09:28:10.179Z,1.27
2017-12-31T09:30:37.791Z,2.70
2017-12-31T09:33:06.138Z,0.63
2017-12-31T09:35:33.764Z,0.63
2017-12-31T09:38:01.323Z,0.70
2017-12-31T09:40:28.984Z,0.90
2017-12-31T09:42:56.530Z,1.00
2017-12-31T09:45:24.094Z,0.87
2017-12-31T09:47:51.758Z,1.30
2017-12-31T09:50:20.088Z,0.87
2017-12-31T09:52:47.714Z,1.10
2017-12-31T09:55:15.274Z,0.60
2017-12-31T09:57:42.882Z,1.00
2017-12-31T10:00:11.259Z,1.00
2017-12-31T10:02:39.626Z,0.60
2017-12-31T10:05:07.202Z,0.40
2017-12-31T10:07:35.606Z,0.90
2017-12-31T10:10:03.201Z,0.50
2017-12-31T10:12:30.764Z,1.10
2017-12-31T10:14:58.337Z,0.87
2017-12-31T10:17:25.940Z,0.90
2017-12-31T10:19:53.515Z,1.23
2017-12-31T10:22:21.110Z,1.10
2017-12-31T10:24:49.465Z,0.67
2017-12-31T10:27:17.022Z,0.90
2017-12-31T10:29:44.653Z,0.90
2017-12-31T10:32:12.223Z,1.10
2017-12-31T10:34:39.821Z,1.00
2017-12-31T10:37:07.383Z,1.20
2017-12-31T10:39:36.506Z,1.07
2017-12-31T10:42:04.882Z,0.60
2017-12-31T10:44:33.196Z,1.03
2017-12-31T10:47:00.841Z,0.90
2017-12-31T10:49:28.455Z,1.03
2017-12-31T10:51:56.098Z,2.47
2017-12-31T10:54:23.696Z,0.87
2017-12-31T10:56:52.011Z,1.10
2017-12-31T10:59:19.653Z,0.83
2017-12-31T11:01:47.270Z,0.50
2017-12-31T11:04:15.792Z,1.13
2017-12-31T11:06:43.470Z,0.83
2017-12-31T11:09:11.098Z,1.00
2017-12-31T11:11:39.434Z,1.00
2017-12-31T11:14:07.758Z,1.07
2017-12-31T11:16:35.369Z,1.00
2017-12-31T11:19:03.693Z,0.70
2017-12-31T11:21:31.342Z,0.60
2017-12-31T11:23:59.698Z,0.70
2017-12-31T11:26:27.284Z,0.43
2017-12-31T11:28:54.874Z,2.00
2017-12-31T11:31:22.619Z,0.67
2017-12-31T11:33:50.371Z,1.00
2017-12-31T11:36:18.114Z,0.70
2017-12-31T11:38:46.650Z,0.60
2017-12-31T11:41:14.224Z,0.83
2017-12-31T11:43:41.820Z,1.10
2017-12-31T11:46:10.201Z,0.90
2017-12-31T11:48:38.516Z,0.60
2017-12-31T11:51:06.127Z,0.93
2017-12-31T11:53:34.443Z,0.70
2017-12-31T11:56:01.995Z,0.73
2017-12-31T11:58:29.607Z,1.80
2017-12-31T12:00:57.926Z,0.53
2017-12-31T12:03:25.619Z,0.50
2017-12-31T12:05:53.194Z,0.87
2017-12-31T12:08:20.801Z,0.57
2017-12-31T12:10:48.396Z,0.80
2017-12-31T12:13:15.969Z,0.50
2017-12-31T12:15:45.074Z,0.70
2017-12-31T12:18:12.643Z,1.00
2017-12-31T12:20:41.111Z,0.40
2017-12-31T12:23:09.442Z,0.87
2017-12-31T12:25:36.997Z,0.80
2017-12-31T12:28:04.590Z,0.80
2017-12-31T12:30:32.208Z,0.80
2017-12-31T12:32:59.806Z,0.73
2017-12-31T12:35:27.370Z,0.60
2017-12-31T12:37:54.943Z,0.53
2017-12-31T12:40:22.522Z,0.73
2017-12-31T12:42:50.851Z,4.30
2017-12-31T12:45:18.458Z,0.70
2017-12-31T12:47:46.986Z,0.80
2017-12-31T12:50:14.619Z,0.50
2017-12-31T12:52:42.207Z,1.43
2017-12-31T12:55:09.758Z,0.40
2017-12-31T12:57:37.390Z,0.87
2017-12-31T13:00:04.944Z,0.60
2017-12-31T13:02:32.717Z,0.50
2017-12-31T13:05:00.319Z,0.80
2017-12-31T13:07:27.878Z,0.70
2017-12-31T13:09:55.480Z,0.73
2017-12-31T13:12:23.159Z,0.70
2017-12-31T13:14:50.722Z,0.80
2017-12-31T13:17:18.322Z,0.50
2017-12-31T13:19:45.883Z,0.63
2017-12-31T13:22:13.518Z,1.30
2017-12-31T13:24:41.086Z,0.80
2017-12-31T13:27:08.651Z,0.90
2017-12-31T13:29:36.239Z,0.70
2017-12-31T13:32:04.570Z,0.70
2017-12-31T13:34:32.156Z,0.80
2017-12-31T13:37:00.544Z,0.57
2017-12-31T13:39:28.906Z,1.17
2017-12-31T13:41:56.490Z,0.60
2017-12-31T13:44:24.927Z,0.80
2017-12-31T13:46:53.680Z,0.53
2017-12-31T13:49:21.340Z,1.30
2017-12-31T13:51:49.054Z,0.90
2017-12-31T13:54:18.154Z,1.00
2017-12-31T13:56:46.523Z,0.77
2017-12-31T13:59:14.918Z,0.63
2017-12-31T14:01:43.287Z,0.60
2017-12-31T14:04:10.925Z,0.90
2017-12-31T14:06:38.478Z,0.60
2017-12-31T14:09:06.101Z,0.90
2017-12-31T14:11:33.818Z,0.80
2017-12-31T14:14:01.386Z,0.80
2017-12-31T14:16:28.977Z,0.93
2017-12-31T14:18:56.553Z,0.90
2017-12-31T14:21:24.166Z,0.93
2017-12-31T14:23:52.519Z,0.83
2017-12-31T14:26:20.086Z,0.90
2017-12-31T14:28:49.198Z,0.97
2017-12-31T14:31:17.715Z,1.00
2017-12-31T14:33:45.311Z,0.77
2017-12-31T14:36:12.870Z,0.80
2017-12-31T14:38:40.487Z,0.63
2017-12-31T14:41:08.050Z,0.60
2017-12-31T14:43:35.603Z,0.77
2017-12-31T14:46:03.196Z,1.00
2017-12-31T14:48:30.827Z,0.90
2017-12-31T14:50:58.415Z,1.20
2017-12-31T14:53:25.990Z,1.10
2017-12-31T14:55:54.327Z,1.10
2017-12-31T14:58:21.989Z,1.47
2017-12-31T15:00:49.602Z,1.87
2017-12-31T15:03:17.978Z,1.30
2017-12-31T15:05:46.351Z,1.60
2017-12-31T15:08:14.085Z,0.80
2017-12-31T15:10:41.768Z,1.10
2017-12-31T15:13:09.331Z,1.77
2017-12-31T15:15:37.111Z,0.90
2017-12-31T15:18:05.448Z,0.80
2017-12-31T15:20:33.083Z,1.10
2017-12-31T15:23:00.793Z,1.53
2017-12-31T15:25:28.354Z,1.20
2017-12-31T15:27:55.939Z,1.60
2017-12-31T15:30:24.274Z,1.30
2017-12-31T15:32:51.856Z,0.80
2017-12-31T15:35:20.214Z,1.03
2017-12-31T15:37:47.790Z,0.90
2017-12-31T15:40:16.171Z,1.10
2017-12-31T15:42:44.519Z,0.80
2017-12-31T15:45:12.154Z,0.87
2017-12-31T15:47:39.725Z,1.30
2017-12-31T15:50:07.360Z,1.73
2017-12-31T15:52:34.958Z,1.13
2017-12-31T15:55:02.512Z,0.60
2017-12-31T15:57:30.064Z,1.20
2017-12-31T15:59:57.651Z,1.40
2017-12-31T16:02:26.050Z,0.70
2017-12-31T16:04:54.398Z,1.40
2017-12-31T16:07:23.482Z,0.80
2017-12-31T16:09:51.043Z,0.87
2017-12-31T16:12:18.638Z,1.00
2017-12-31T16:14:47.060Z,1.40
2017-12-31T16:17:14.628Z,0.83
2017-12-31T16:19:42.409Z,1.10
2017-12-31T16:22:09.966Z,1.27
2017-12-31T16:24:37.546Z,0.90
2017-12-31T16:27:05.882Z,1.17
2017-12-31T16:29:33.449Z,0.83
2017-12-31T16:32:01.057Z,1.40
2017-12-31T16:34:28.644Z,0.97
2017-12-31T16:36:56.237Z,3.87
2017-12-31T16:39:23.822Z,4.17
2017-12-31T16:41:52.194Z,2.50
2017-12-31T16:44:20.562Z,1.90
2017-12-31T16:46:48.258Z,2.33
2017-12-31T16:49:16.025Z,1.97
2017-12-31T16:51:43.686Z,1.27
2017-12-31T16:54:11.987Z,3.80
2017-12-31T16:56:39.581Z,2.67
2017-12-31T16:59:07.902Z,1.90
2017-12-31T17:01:35.510Z,2.90
2017-12-31T17:04:03.066Z,4.83
2017-12-31T17:06:30.674Z,2.70
2017-12-31T17:08:58.293Z,2.50
2017-12-31T17:11:25.874Z,5.17
2017-12-31T17:13:54.195Z,3.30
2017-12-31T17:16:21.790Z,2.20
2017-12-31T17:18:50.230Z,2.30
2017-12-31T17:21:17.836Z,3.17
2017-12-31T17:23:46.171Z,2.70
2017-12-31T17:26:13.718Z,2.70
2017-12-31T17:28:41.362Z,4.10
2017-12-31T17:31:08.926Z,3.23
2017-12-31T17:33:36.575Z,2.63
2017-12-31T17:36:04.269Z,3.70
2017-12-31T17:38:31.900Z,2.90
2017-12-31T17:40:59.458Z,2.50
2017-12-31T17:43:27.043Z,3.17
2017-12-31T17:45:54.634Z,2.00
2017-12-31T17:48:22.192Z,3.50
2017-12-31T17:50:49.741Z,2.90
2017-12-31T17:53:17.330Z,2.23
2017-12-31T17:55:45.836Z,3.03
2017-12-31T17:58:13.492Z,2.97
2017-12-31T18:00:41.047Z,5.03
2017-12-31T18:03:08.675Z,6.50
2017-12-31T18:05:36.994Z,3.20
2017-12-31T18:08:04.615Z,3.50
2017-12-31T18:10:32.938Z,2.40
2017-12-31T18:13:00.514Z,4.20
2017-12-31T18:15:28.110Z,2.60
2017-12-31T18:17:56.456Z,4.00
2017-12-31T18:20:24.054Z,2.27
2017-12-31T18:22:52.390Z,3.53
2017-12-31T18:25:20.090Z,1.60
2017-12-31T18:27:48.474Z,2.50
2017-12-31T18:30:16.048Z,3.87
2017-12-31T18:32:43.631Z,2.93
2017-12-31T18:35:11.190Z,2.70
2017-12-31T18:37:38.819Z,3.27
2017-12-31T18:40:06.512Z,2.20
2017-12-31T18:42:34.147Z,2.27
2017-12-31T18:45:01.754Z,2.97
2017-12-31T18:47:29.311Z,2.73
2017-12-31T18:49:56.908Z,3.20
2017-12-31T18:52:25.239Z,3.10
2017-12-31T18:54:52.859Z,4.07
2017-12-31T18:57:20.450Z,4.93
2017-12-31T18:59:48.100Z,6.43
2017-12-31T19:02:15.738Z,6.23
2017-12-31T19:04:43.374Z,6.37
2017-12-31T19:07:11.694Z,5.50
2017-12-31T19:09:39.438Z,5.83
2017-12-31T19:12:07.145Z,5.13
2017-12-31T19:14:34.715Z,5.80
2017-12-31T19:17:02.363Z,4.87
2017-12-31T19:19:29.931Z,6.93
2017-12-31T19:21:58.338Z,19.30
2017-12-31T19:24:26.685Z,5.30
2017-12-31T19:26:54.246Z,4.90
2017-12-31T19:29:21.851Z,9.20
2017-12-31T19:31:49.413Z,5.53
2017-12-31T19:34:16.991Z,6.17
2017-12-31T19:36:44.593Z,5.07
2017-12-31T19:39:12.939Z,5.70
2017-12-31T19:41:40.736Z,4.43
2017-12-31T19:44:09.146Z,5.13
2017-12-31T19:46:36.734Z,8.00
2017-12-31T19:49:04.302Z,10.90
2017-12-31T19:51:32.023Z,9.97
2017-12-31T19:53:59.645Z,11.87
2017-12-31T19:56:28.050Z,12.30
2017-12-31T19:58:55.639Z,11.50
2017-12-31T20:01:23.222Z,10.50
2017-12-31T20:03:50.839Z,11.50
2017-12-31T20:06:18.473Z,10.40
2017-12-31T20:08:46.014Z,8.60
2017-12-31T20:11:14.397Z,7.60
2017-12-31T20:13:42.710Z,9.47
2017-12-31T20:16:10.320Z,10.43
2017-12-31T20:18:37.887Z,7.50
2017-12-31T20:21:05.511Z,13.13
2017-12-31T20:23:33.071Z,13.47
2017-12-31T20:26:00.627Z,23.80
2017-12-31T20:28:28.229Z,13.20
2017-12-31T20:30:56.551Z,24.20
2017-12-31T20:33:24.178Z,21.90
2017-12-31T20:35:51.839Z,16.63
2017-12-31T20:38:19.402Z,16.83
2017-12-31T20:40:47.002Z,10.60
2017-12-31T20:43:14.579Z,15.10
2017-12-31T20:45:42.175Z,8.20
2017-12-31T20:48:09.751Z,10.50
2017-12-31T20:50:37.530Z,7.10
2017-12-31T20:53:05.102Z,7.00
2017-12-31T20:55:32.662Z,5.57
2017-12-31T20:58:00.292Z,7.47
2017-12-31T21:00:27.953Z,4.30
2017-12-31T21:02:55.613Z,5.30
2017-12-31T21:05:23.170Z,5.93
2017-12-31T21:07:50.837Z,10.80
2017-12-31T21:10:18.458Z,15.80
2017-12-31T21:12:46.886Z,39.30
2017-12-31T21:15:14.486Z,19.13
2017-12-31T21:17:42.911Z,14.23
2017-12-31T21:20:10.671Z,15.23
2017-12-31T21:22:38.262Z,18.30
2017-12-31T21:25:05.841Z,8.33
2017-12-31T21:27:33.430Z,7.60
2017-12-31T21:30:00.994Z,5.77
2017-12-31T21:32:28.621Z,6.00
2017-12-31T21:34:57.686Z,2.50
2017-12-31T21:37:25.294Z,3.10
2017-12-31T21:39:53.643Z,3.30
2017-12-31T21:42:21.290Z,3.20
2017-12-31T21:44:48.873Z,7.13
2017-12-31T21:47:16.472Z,6.37
2017-12-31T21:49:44.189Z,7.20
2017-12-31T21:52:11.771Z,6.20
2017-12-31T21:54:39.330Z,4.20
2017-12-31T21:57:07.733Z,6.33
2017-12-31T21:59:35.294Z,3.30
2017-12-31T22:02:02.915Z,3.80
2017-12-31T22:04:31.314Z,2.30
2017-12-31T22:06:58.883Z,3.00
2017-12-31T22:09:26.485Z,1.97
2017-12-31T22:11:54.103Z,1.83
2017-12-31T22:14:21.708Z,1.90
2017-12-31T22:16:49.267Z,3.77
2017-12-31T22:19:16.879Z,3.67
2017-12-31T22:21:44.440Z,4.10
2017-12-31T22:24:12.006Z,5.70
2017-12-31T22:26:39.594Z,6.70
2017-12-31T22:29:07.158Z,6.30
2017-12-31T22:31:34.773Z,3.80
2017-12-31T22:34:02.436Z,5.10
2017-12-31T22:36:29.996Z,6.33
2017-12-31T22:38:57.607Z,5.00
2017-12-31T22:41:25.981Z,5.80
2017-12-31T22:43:53.596Z,5.13
2017-12-31T22:46:21.159Z,5.77
2017-12-31T22:48:48.786Z,6.90
2017-12-31T22:51:17.318Z,7.37
2017-12-31T22:53:44.878Z,5.37
2017-12-31T22:56:12.480Z,10.93
2017-12-31T22:58:40.813Z,4.90
2017-12-31T23:01:08.412Z,18.13
2017-12-31T23:03:36.820Z,42.23
2017-12-31T23:06:04.417Z,28.50
2017-12-31T23:08:31.995Z,50.30
2017-12-31T23:11:00.331Z,72.43
2017-12-31T23:13:28.030Z,59.03
2017-12-31T23:15:55.614Z,51.07
2017-12-31T23:18:23.979Z,101.03
2017-12-31T23:20:52.359Z,68.37
2017-12-31T23:23:20.751Z,31.13
2017-12-31T23:25:48.449Z,32.20
2017-12-31T23:28:16.086Z,42.70
2017-12-31T23:30:43.758Z,46.70
2017-12-31T23:33:11.321Z,47.50
2017-12-31T23:35:39.068Z,43.50
2017-12-31T23:38:06.626Z,45.20
2017-12-31T23:40:34.215Z,25.90
2017-12-31T23:43:01.814Z,52.33
2017-12-31T23:45:30.223Z,48.33
2017-12-31T23:47:57.815Z,54.13
2017-12-31T23:50:25.483Z,59.40
2017-12-31T23:52:53.114Z,74.77
2017-12-31T23:55:20.825Z,77.27
2017-12-31T23:57:48.350Z,48.07
